sensor_id;sensor_type;location;lat;lon;timestamp;P1;durP1;ratioP1;P2;durP2;ratioP2
59416;SDS011;45222;52.458;20.914;2022-10-16T00:02:18;19.90;;;16.00;;
59416;SDS011;45222;52.458;20.914;2022-10-16T00:05:21;17.90;;;15.60;;
59416;SDS011;45222;52.458;20.914;2022-10-16T00:08:23;20.00;;;16.50;;
59416;SDS011;45222;52.458;20.914;2022-10-16T00:11:26;19.00;;;15.50;;
59416;SDS011;45222;52.458;20.914;2022-10-16T00:14:31;22.40;;;15.10;;
59416;SDS011;45222;52.458;20.914;2022-10-16T00:17:33;18.10;;;14.30;;
59416;SDS011;45222;52.458;20.914;2022-10-16T00:20:36;18.20;;;14.80;;
59416;SDS011;45222;52.458;20.914;2022-10-16T00:23:38;21.70;;;15.70;;
59416;SDS011;45222;52.458;20.914;2022-10-16T00:26:41;17.00;;;14.40;;
59416;SDS011;45222;52.458;20.914;2022-10-16T00:29:44;16.60;;;14.70;;
59416;SDS011;45222;52.458;20.914;2022-10-16T00:32:50;16.60;;;13.90;;
59416;SDS011;45222;52.458;20.914;2022-10-16T00:35:53;17.80;;;12.00;;
59416;SDS011;45222;52.458;20.914;2022-10-16T00:38:56;15.90;;;11.40;;
59416;SDS011;45222;52.458;20.914;2022-10-16T00:42:00;16.70;;;12.40;;
59416;SDS011;45222;52.458;20.914;2022-10-16T00:45:03;16.70;;;12.30;;
59416;SDS011;45222;52.458;20.914;2022-10-16T00:48:07;16.70;;;12.60;;
59416;SDS011;45222;52.458;20.914;2022-10-16T00:51:15;15.40;;;12.30;;
59416;SDS011;45222;52.458;20.914;2022-10-16T00:54:24;15.50;;;12.40;;
59416;SDS011;45222;52.458;20.914;2022-10-16T00:57:29;15.10;;;11.00;;
59416;SDS011;45222;52.458;20.914;2022-10-16T01:00:32;14.70;;;11.30;;
59416;SDS011;45222;52.458;20.914;2022-10-16T01:03:35;15.60;;;11.60;;
59416;SDS011;45222;52.458;20.914;2022-10-16T01:06:40;15.70;;;12.40;;
59416;SDS011;45222;52.458;20.914;2022-10-16T01:09:54;16.10;;;12.10;;
59416;SDS011;45222;52.458;20.914;2022-10-16T01:13:07;16.00;;;12.80;;
59416;SDS011;45222;52.458;20.914;2022-10-16T01:19:19;16.00;;;12.80;;
59416;SDS011;45222;52.458;20.914;2022-10-16T01:22:30;16.30;;;12.00;;
59416;SDS011;45222;52.458;20.914;2022-10-16T01:25:49;14.80;;;10.90;;
59416;SDS011;45222;52.458;20.914;2022-10-16T01:29:08;14.90;;;11.20;;
59416;SDS011;45222;52.458;20.914;2022-10-16T01:35:21;13.80;;;11.50;;
59416;SDS011;45222;52.458;20.914;2022-10-16T01:38:29;13.70;;;12.10;;
59416;SDS011;45222;52.458;20.914;2022-10-16T01:41:36;17.00;;;12.00;;
59416;SDS011;45222;52.458;20.914;2022-10-16T01:44:42;14.80;;;10.50;;
59416;SDS011;45222;52.458;20.914;2022-10-16T01:47:48;15.10;;;10.30;;
59416;SDS011;45222;52.458;20.914;2022-10-16T01:50:54;12.00;;;9.80;;
59416;SDS011;45222;52.458;20.914;2022-10-16T01:54:01;14.80;;;10.70;;
59416;SDS011;45222;52.458;20.914;2022-10-16T01:57:06;14.60;;;11.50;;
59416;SDS011;45222;52.458;20.914;2022-10-16T02:00:11;15.70;;;10.80;;
59416;SDS011;45222;52.458;20.914;2022-10-16T02:03:16;13.00;;;10.70;;
59416;SDS011;45222;52.458;20.914;2022-10-16T02:06:21;13.80;;;10.90;;
59416;SDS011;45222;52.458;20.914;2022-10-16T02:09:24;13.70;;;9.70;;
59416;SDS011;45222;52.458;20.914;2022-10-16T02:12:31;12.40;;;9.30;;
59416;SDS011;45222;52.458;20.914;2022-10-16T02:15:36;12.50;;;10.20;;
59416;SDS011;45222;52.458;20.914;2022-10-16T02:18:38;15.00;;;10.30;;
59416;SDS011;45222;52.458;20.914;2022-10-16T02:21:43;14.10;;;10.90;;
59416;SDS011;45222;52.458;20.914;2022-10-16T02:24:51;15.60;;;11.50;;
59416;SDS011;45222;52.458;20.914;2022-10-16T02:27:59;13.30;;;11.20;;
59416;SDS011;45222;52.458;20.914;2022-10-16T02:31:06;15.40;;;10.00;;
59416;SDS011;45222;52.458;20.914;2022-10-16T02:34:41;14.50;;;10.10;;
59416;SDS011;45222;52.458;20.914;2022-10-16T02:37:52;15.00;;;10.50;;
59416;SDS011;45222;52.458;20.914;2022-10-16T02:40:56;15.50;;;11.30;;
59416;SDS011;45222;52.458;20.914;2022-10-16T02:43:58;14.10;;;11.00;;
59416;SDS011;45222;52.458;20.914;2022-10-16T02:47:01;14.10;;;10.60;;
59416;SDS011;45222;52.458;20.914;2022-10-16T02:50:04;14.00;;;10.40;;
59416;SDS011;45222;52.458;20.914;2022-10-16T02:53:08;13.90;;;10.30;;
59416;SDS011;45222;52.458;20.914;2022-10-16T02:56:10;15.30;;;10.20;;
59416;SDS011;45222;52.458;20.914;2022-10-16T02:59:12;13.60;;;10.20;;
59416;SDS011;45222;52.458;20.914;2022-10-16T03:02:15;14.80;;;11.60;;
59416;SDS011;45222;52.458;20.914;2022-10-16T03:05:18;15.10;;;12.20;;
59416;SDS011;45222;52.458;20.914;2022-10-16T03:08:20;15.10;;;12.00;;
59416;SDS011;45222;52.458;20.914;2022-10-16T03:11:24;14.70;;;11.50;;
59416;SDS011;45222;52.458;20.914;2022-10-16T03:14:27;16.10;;;11.30;;
59416;SDS011;45222;52.458;20.914;2022-10-16T03:17:31;14.70;;;11.20;;
59416;SDS011;45222;52.458;20.914;2022-10-16T03:20:34;15.80;;;12.80;;
59416;SDS011;45222;52.458;20.914;2022-10-16T03:23:36;17.00;;;12.40;;
59416;SDS011;45222;52.458;20.914;2022-10-16T03:26:39;16.50;;;13.20;;
59416;SDS011;45222;52.458;20.914;2022-10-16T03:29:41;18.30;;;14.10;;
59416;SDS011;45222;52.458;20.914;2022-10-16T03:32:44;16.00;;;12.70;;
59416;SDS011;45222;52.458;20.914;2022-10-16T03:35:51;17.30;;;12.70;;
59416;SDS011;45222;52.458;20.914;2022-10-16T03:38:54;17.60;;;13.40;;
59416;SDS011;45222;52.458;20.914;2022-10-16T03:41:56;17.60;;;13.60;;
59416;SDS011;45222;52.458;20.914;2022-10-16T03:44:59;16.70;;;13.80;;
59416;SDS011;45222;52.458;20.914;2022-10-16T03:48:01;17.70;;;13.80;;
59416;SDS011;45222;52.458;20.914;2022-10-16T03:51:04;20.80;;;13.20;;
59416;SDS011;45222;52.458;20.914;2022-10-16T03:54:07;17.60;;;12.70;;
59416;SDS011;45222;52.458;20.914;2022-10-16T03:57:10;17.40;;;12.40;;
59416;SDS011;45222;52.458;20.914;2022-10-16T04:00:13;17.40;;;13.20;;
59416;SDS011;45222;52.458;20.914;2022-10-16T04:03:16;18.30;;;13.90;;
59416;SDS011;45222;52.458;20.914;2022-10-16T04:06:20;19.60;;;14.40;;
59416;SDS011;45222;52.458;20.914;2022-10-16T04:09:22;20.80;;;14.90;;
59416;SDS011;45222;52.458;20.914;2022-10-16T04:12:25;20.30;;;14.30;;
59416;SDS011;45222;52.458;20.914;2022-10-16T04:15:28;18.40;;;13.70;;
59416;SDS011;45222;52.458;20.914;2022-10-16T04:18:30;17.50;;;13.40;;
59416;SDS011;45222;52.458;20.914;2022-10-16T04:21:33;18.00;;;14.10;;
59416;SDS011;45222;52.458;20.914;2022-10-16T04:24:35;17.90;;;14.40;;
59416;SDS011;45222;52.458;20.914;2022-10-16T04:27:38;19.60;;;15.10;;
59416;SDS011;45222;52.458;20.914;2022-10-16T04:30:41;19.40;;;16.00;;
59416;SDS011;45222;52.458;20.914;2022-10-16T04:33:43;18.20;;;14.40;;
59416;SDS011;45222;52.458;20.914;2022-10-16T04:36:47;18.10;;;14.40;;
59416;SDS011;45222;52.458;20.914;2022-10-16T04:39:50;21.60;;;15.00;;
59416;SDS011;45222;52.458;20.914;2022-10-16T04:42:52;17.10;;;13.80;;
59416;SDS011;45222;52.458;20.914;2022-10-16T04:45:55;20.10;;;15.50;;
59416;SDS011;45222;52.458;20.914;2022-10-16T04:48:58;20.30;;;15.60;;
59416;SDS011;45222;52.458;20.914;2022-10-16T04:52:00;20.40;;;16.30;;
59416;SDS011;45222;52.458;20.914;2022-10-16T04:55:04;19.20;;;14.90;;
59416;SDS011;45222;52.458;20.914;2022-10-16T04:58:07;19.70;;;14.90;;
59416;SDS011;45222;52.458;20.914;2022-10-16T05:01:10;19.20;;;14.40;;
59416;SDS011;45222;52.458;20.914;2022-10-16T05:04:12;20.50;;;15.30;;
59416;SDS011;45222;52.458;20.914;2022-10-16T05:07:16;20.40;;;15.80;;
59416;SDS011;45222;52.458;20.914;2022-10-16T05:10:18;20.10;;;15.50;;
59416;SDS011;45222;52.458;20.914;2022-10-16T05:13:22;19.80;;;14.80;;
59416;SDS011;45222;52.458;20.914;2022-10-16T05:16:24;19.70;;;14.50;;
59416;SDS011;45222;52.458;20.914;2022-10-16T05:19:27;20.00;;;14.80;;
59416;SDS011;45222;52.458;20.914;2022-10-16T05:22:29;19.70;;;15.20;;
59416;SDS011;45222;52.458;20.914;2022-10-16T05:25:33;19.00;;;15.90;;
59416;SDS011;45222;52.458;20.914;2022-10-16T05:28:35;22.90;;;16.30;;
59416;SDS011;45222;52.458;20.914;2022-10-16T05:31:38;21.80;;;15.30;;
59416;SDS011;45222;52.458;20.914;2022-10-16T05:34:40;19.30;;;15.20;;
59416;SDS011;45222;52.458;20.914;2022-10-16T05:37:43;20.90;;;15.30;;
59416;SDS011;45222;52.458;20.914;2022-10-16T05:40:50;20.60;;;14.70;;
59416;SDS011;45222;52.458;20.914;2022-10-16T05:43:53;21.70;;;15.20;;
59416;SDS011;45222;52.458;20.914;2022-10-16T05:46:56;19.40;;;15.60;;
59416;SDS011;45222;52.458;20.914;2022-10-16T05:49:58;21.10;;;16.60;;
59416;SDS011;45222;52.458;20.914;2022-10-16T05:53:01;21.40;;;16.10;;
59416;SDS011;45222;52.458;20.914;2022-10-16T05:56:04;17.40;;;14.30;;
59416;SDS011;45222;52.458;20.914;2022-10-16T05:59:09;18.50;;;15.00;;
59416;SDS011;45222;52.458;20.914;2022-10-16T06:02:19;17.80;;;14.10;;
59416;SDS011;45222;52.458;20.914;2022-10-16T06:05:27;22.60;;;15.40;;
59416;SDS011;45222;52.458;20.914;2022-10-16T06:08:30;21.50;;;15.70;;
59416;SDS011;45222;52.458;20.914;2022-10-16T06:11:33;21.20;;;16.10;;
59416;SDS011;45222;52.458;20.914;2022-10-16T06:14:36;21.00;;;15.40;;
59416;SDS011;45222;52.458;20.914;2022-10-16T06:17:38;22.20;;;15.30;;
59416;SDS011;45222;52.458;20.914;2022-10-16T06:20:41;17.90;;;14.30;;
59416;SDS011;45222;52.458;20.914;2022-10-16T06:23:44;18.60;;;13.80;;
59416;SDS011;45222;52.458;20.914;2022-10-16T06:26:48;18.40;;;14.70;;
59416;SDS011;45222;52.458;20.914;2022-10-16T06:29:50;20.50;;;14.90;;
59416;SDS011;45222;52.458;20.914;2022-10-16T06:32:53;19.10;;;15.60;;
59416;SDS011;45222;52.458;20.914;2022-10-16T06:36:00;19.20;;;14.00;;
59416;SDS011;45222;52.458;20.914;2022-10-16T06:39:04;19.80;;;13.40;;
59416;SDS011;45222;52.458;20.914;2022-10-16T06:42:08;16.50;;;12.60;;
59416;SDS011;45222;52.458;20.914;2022-10-16T06:45:11;17.00;;;12.70;;
59416;SDS011;45222;52.458;20.914;2022-10-16T06:48:14;17.10;;;13.00;;
59416;SDS011;45222;52.458;20.914;2022-10-16T06:51:16;17.50;;;13.90;;
59416;SDS011;45222;52.458;20.914;2022-10-16T06:54:20;17.40;;;14.00;;
59416;SDS011;45222;52.458;20.914;2022-10-16T06:57:23;17.80;;;12.70;;
59416;SDS011;45222;52.458;20.914;2022-10-16T07:00:25;15.10;;;12.30;;
59416;SDS011;45222;52.458;20.914;2022-10-16T07:03:28;15.60;;;12.30;;
59416;SDS011;45222;52.458;20.914;2022-10-16T07:06:31;16.60;;;12.80;;
59416;SDS011;45222;52.458;20.914;2022-10-16T07:09:35;16.10;;;12.90;;
59416;SDS011;45222;52.458;20.914;2022-10-16T07:12:37;14.40;;;12.60;;
59416;SDS011;45222;52.458;20.914;2022-10-16T07:15:40;17.10;;;13.10;;
59416;SDS011;45222;52.458;20.914;2022-10-16T07:18:43;13.80;;;12.20;;
59416;SDS011;45222;52.458;20.914;2022-10-16T07:21:47;15.90;;;11.40;;
59416;SDS011;45222;52.458;20.914;2022-10-16T07:24:50;16.10;;;12.20;;
59416;SDS011;45222;52.458;20.914;2022-10-16T07:27:53;14.20;;;12.30;;
59416;SDS011;45222;52.458;20.914;2022-10-16T07:31:00;15.70;;;11.70;;
59416;SDS011;45222;52.458;20.914;2022-10-16T07:34:03;15.10;;;12.50;;
59416;SDS011;45222;52.458;20.914;2022-10-16T07:37:06;16.30;;;11.80;;
59416;SDS011;45222;52.458;20.914;2022-10-16T07:40:09;16.70;;;11.20;;
59416;SDS011;45222;52.458;20.914;2022-10-16T07:43:12;16.20;;;10.90;;
59416;SDS011;45222;52.458;20.914;2022-10-16T07:46:15;13.50;;;11.80;;
59416;SDS011;45222;52.458;20.914;2022-10-16T07:49:18;14.00;;;11.80;;
59416;SDS011;45222;52.458;20.914;2022-10-16T07:52:21;15.80;;;11.70;;
59416;SDS011;45222;52.458;20.914;2022-10-16T07:55:24;15.10;;;12.60;;
59416;SDS011;45222;52.458;20.914;2022-10-16T07:58:26;14.90;;;12.50;;
59416;SDS011;45222;52.458;20.914;2022-10-16T08:01:30;16.80;;;12.10;;
59416;SDS011;45222;52.458;20.914;2022-10-16T08:04:32;14.50;;;11.90;;
59416;SDS011;45222;52.458;20.914;2022-10-16T08:07:35;14.10;;;11.80;;
59416;SDS011;45222;52.458;20.914;2022-10-16T08:10:38;14.80;;;12.30;;
59416;SDS011;45222;52.458;20.914;2022-10-16T08:13:40;18.20;;;12.40;;
59416;SDS011;45222;52.458;20.914;2022-10-16T08:16:43;15.00;;;12.10;;
59416;SDS011;45222;52.458;20.914;2022-10-16T08:19:46;14.60;;;11.20;;
59416;SDS011;45222;52.458;20.914;2022-10-16T08:22:49;14.40;;;11.10;;
59416;SDS011;45222;52.458;20.914;2022-10-16T08:25:52;16.50;;;11.60;;
59416;SDS011;45222;52.458;20.914;2022-10-16T08:28:55;14.30;;;11.00;;
59416;SDS011;45222;52.458;20.914;2022-10-16T08:31:57;15.30;;;12.10;;
59416;SDS011;45222;52.458;20.914;2022-10-16T08:35:00;13.80;;;11.90;;
59416;SDS011;45222;52.458;20.914;2022-10-16T08:38:03;14.80;;;11.90;;
59416;SDS011;45222;52.458;20.914;2022-10-16T08:41:16;15.70;;;11.20;;
59416;SDS011;45222;52.458;20.914;2022-10-16T08:44:28;13.40;;;10.90;;
59416;SDS011;45222;52.458;20.914;2022-10-16T08:47:47;14.60;;;11.10;;
59416;SDS011;45222;52.458;20.914;2022-10-16T08:50:56;15.50;;;11.10;;
59416;SDS011;45222;52.458;20.914;2022-10-16T08:54:01;14.70;;;11.10;;
59416;SDS011;45222;52.458;20.914;2022-10-16T08:57:08;13.40;;;11.60;;
59416;SDS011;45222;52.458;20.914;2022-10-16T09:00:14;15.20;;;12.00;;
59416;SDS011;45222;52.458;20.914;2022-10-16T09:03:21;15.20;;;11.50;;
59416;SDS011;45222;52.458;20.914;2022-10-16T09:06:32;16.10;;;11.80;;
59416;SDS011;45222;52.458;20.914;2022-10-16T09:09:48;13.70;;;11.00;;
59416;SDS011;45222;52.458;20.914;2022-10-16T09:13:01;13.20;;;11.10;;
59416;SDS011;45222;52.458;20.914;2022-10-16T09:16:12;16.80;;;12.00;;
59416;SDS011;45222;52.458;20.914;2022-10-16T09:19:23;14.80;;;11.60;;
59416;SDS011;45222;52.458;20.914;2022-10-16T09:22:30;15.20;;;12.10;;
59416;SDS011;45222;52.458;20.914;2022-10-16T09:25:33;18.70;;;12.00;;
59416;SDS011;45222;52.458;20.914;2022-10-16T09:28:37;15.10;;;12.10;;
59416;SDS011;45222;52.458;20.914;2022-10-16T09:31:41;15.70;;;11.80;;
59416;SDS011;45222;52.458;20.914;2022-10-16T09:34:45;14.90;;;10.90;;
59416;SDS011;45222;52.458;20.914;2022-10-16T09:37:51;13.20;;;10.80;;
59416;SDS011;45222;52.458;20.914;2022-10-16T09:40:56;14.90;;;11.70;;
59416;SDS011;45222;52.458;20.914;2022-10-16T09:44:01;15.40;;;11.80;;
59416;SDS011;45222;52.458;20.914;2022-10-16T09:47:05;13.70;;;11.20;;
59416;SDS011;45222;52.458;20.914;2022-10-16T09:50:20;15.20;;;10.90;;
59416;SDS011;45222;52.458;20.914;2022-10-16T09:53:35;13.50;;;10.20;;
59416;SDS011;45222;52.458;20.914;2022-10-16T09:56:49;12.40;;;10.80;;
59416;SDS011;45222;52.458;20.914;2022-10-16T09:59:59;14.00;;;10.80;;
59416;SDS011;45222;52.458;20.914;2022-10-16T10:03:09;13.00;;;9.50;;
59416;SDS011;45222;52.458;20.914;2022-10-16T10:06:21;13.30;;;9.10;;
59416;SDS011;45222;52.458;20.914;2022-10-16T10:09:26;12.70;;;8.80;;
59416;SDS011;45222;52.458;20.914;2022-10-16T10:12:33;13.90;;;10.20;;
59416;SDS011;45222;52.458;20.914;2022-10-16T10:15:47;14.10;;;9.80;;
59416;SDS011;45222;52.458;20.914;2022-10-16T10:18:57;13.20;;;9.50;;
59416;SDS011;45222;52.458;20.914;2022-10-16T10:22:00;12.30;;;9.60;;
59416;SDS011;45222;52.458;20.914;2022-10-16T10:28:38;11.30;;;9.40;;
59416;SDS011;45222;52.458;20.914;2022-10-16T10:31:53;14.90;;;9.50;;
59416;SDS011;45222;52.458;20.914;2022-10-16T10:35:06;13.00;;;9.50;;
59416;SDS011;45222;52.458;20.914;2022-10-16T10:38:25;10.80;;;8.50;;
59416;SDS011;45222;52.458;20.914;2022-10-16T10:45:11;11.60;;;9.30;;
59416;SDS011;45222;52.458;20.914;2022-10-16T10:48:28;12.10;;;8.90;;
59416;SDS011;45222;52.458;20.914;2022-10-16T10:51:51;12.60;;;9.10;;
59416;SDS011;45222;52.458;20.914;2022-10-16T10:55:09;11.10;;;8.50;;
59416;SDS011;45222;52.458;20.914;2022-10-16T10:58:26;12.80;;;9.30;;
59416;SDS011;45222;52.458;20.914;2022-10-16T11:01:54;14.10;;;10.60;;
59416;SDS011;45222;52.458;20.914;2022-10-16T11:05:01;13.70;;;9.60;;
59416;SDS011;45222;52.458;20.914;2022-10-16T11:08:28;12.40;;;9.80;;
59416;SDS011;45222;52.458;20.914;2022-10-16T11:11:37;14.50;;;11.20;;
59416;SDS011;45222;52.458;20.914;2022-10-16T11:14:46;12.30;;;10.10;;
59416;SDS011;45222;52.458;20.914;2022-10-16T11:17:55;14.40;;;10.30;;
59416;SDS011;45222;52.458;20.914;2022-10-16T11:21:05;11.70;;;8.50;;
59416;SDS011;45222;52.458;20.914;2022-10-16T11:24:13;11.90;;;10.00;;
59416;SDS011;45222;52.458;20.914;2022-10-16T11:27:23;13.70;;;9.80;;
59416;SDS011;45222;52.458;20.914;2022-10-16T11:30:33;14.70;;;11.20;;
59416;SDS011;45222;52.458;20.914;2022-10-16T11:33:49;15.80;;;11.10;;
59416;SDS011;45222;52.458;20.914;2022-10-16T11:37:01;21.50;;;10.30;;
59416;SDS011;45222;52.458;20.914;2022-10-16T11:40:14;12.60;;;9.50;;
59416;SDS011;45222;52.458;20.914;2022-10-16T11:43:26;13.70;;;9.80;;
59416;SDS011;45222;52.458;20.914;2022-10-16T11:46:31;12.10;;;9.50;;
59416;SDS011;45222;52.458;20.914;2022-10-16T11:49:37;13.10;;;10.00;;
59416;SDS011;45222;52.458;20.914;2022-10-16T11:52:43;13.50;;;10.40;;
59416;SDS011;45222;52.458;20.914;2022-10-16T11:55:53;13.90;;;10.90;;
59416;SDS011;45222;52.458;20.914;2022-10-16T11:59:06;12.80;;;10.10;;
59416;SDS011;45222;52.458;20.914;2022-10-16T12:02:27;13.20;;;9.70;;
59416;SDS011;45222;52.458;20.914;2022-10-16T12:05:39;11.80;;;9.90;;
59416;SDS011;45222;52.458;20.914;2022-10-16T12:09:02;13.70;;;9.80;;
59416;SDS011;45222;52.458;20.914;2022-10-16T12:12:22;13.50;;;9.00;;
59416;SDS011;45222;52.458;20.914;2022-10-16T12:15:27;10.80;;;8.90;;
59416;SDS011;45222;52.458;20.914;2022-10-16T12:18:30;15.50;;;9.80;;
59416;SDS011;45222;52.458;20.914;2022-10-16T12:21:33;12.10;;;9.20;;
59416;SDS011;45222;52.458;20.914;2022-10-16T12:24:36;11.40;;;9.60;;
59416;SDS011;45222;52.458;20.914;2022-10-16T12:27:42;13.70;;;10.10;;
59416;SDS011;45222;52.458;20.914;2022-10-16T12:30:51;14.00;;;10.40;;
59416;SDS011;45222;52.458;20.914;2022-10-16T12:33:57;11.50;;;9.00;;
59416;SDS011;45222;52.458;20.914;2022-10-16T12:37:10;14.70;;;10.00;;
59416;SDS011;45222;52.458;20.914;2022-10-16T12:40:16;13.30;;;10.10;;
59416;SDS011;45222;52.458;20.914;2022-10-16T12:43:35;12.80;;;9.90;;
59416;SDS011;45222;52.458;20.914;2022-10-16T12:46:40;14.70;;;9.80;;
59416;SDS011;45222;52.458;20.914;2022-10-16T12:49:48;11.40;;;9.40;;
59416;SDS011;45222;52.458;20.914;2022-10-16T12:55:57;13.30;;;9.40;;
59416;SDS011;45222;52.458;20.914;2022-10-16T12:59:07;13.60;;;10.20;;
59416;SDS011;45222;52.458;20.914;2022-10-16T13:06:11;12.40;;;9.20;;
59416;SDS011;45222;52.458;20.914;2022-10-16T13:09:29;11.80;;;9.70;;
59416;SDS011;45222;52.458;20.914;2022-10-16T13:12:47;15.30;;;11.00;;
59416;SDS011;45222;52.458;20.914;2022-10-16T13:16:07;19.30;;;10.60;;
59416;SDS011;45222;52.458;20.914;2022-10-16T13:19:18;13.50;;;8.90;;
59416;SDS011;45222;52.458;20.914;2022-10-16T13:22:31;13.10;;;11.00;;
59416;SDS011;45222;52.458;20.914;2022-10-16T13:25:47;12.90;;;9.80;;
59416;SDS011;45222;52.458;20.914;2022-10-16T13:28:59;11.30;;;8.60;;
59416;SDS011;45222;52.458;20.914;2022-10-16T13:32:07;12.50;;;8.50;;
59416;SDS011;45222;52.458;20.914;2022-10-16T13:35:18;10.70;;;8.10;;
59416;SDS011;45222;52.458;20.914;2022-10-16T13:38:24;10.70;;;8.60;;
59416;SDS011;45222;52.458;20.914;2022-10-16T13:41:28;12.50;;;8.80;;
59416;SDS011;45222;52.458;20.914;2022-10-16T13:44:36;11.70;;;9.00;;
59416;SDS011;45222;52.458;20.914;2022-10-16T13:47:42;13.20;;;8.80;;
59416;SDS011;45222;52.458;20.914;2022-10-16T13:50:44;11.60;;;9.00;;
59416;SDS011;45222;52.458;20.914;2022-10-16T13:53:47;12.50;;;9.40;;
59416;SDS011;45222;52.458;20.914;2022-10-16T13:56:50;15.20;;;11.10;;
59416;SDS011;45222;52.458;20.914;2022-10-16T13:59:54;13.70;;;10.30;;
59416;SDS011;45222;52.458;20.914;2022-10-16T14:03:00;13.90;;;10.80;;
59416;SDS011;45222;52.458;20.914;2022-10-16T14:06:06;14.20;;;10.30;;
59416;SDS011;45222;52.458;20.914;2022-10-16T14:09:18;15.00;;;10.20;;
59416;SDS011;45222;52.458;20.914;2022-10-16T14:12:25;14.40;;;10.40;;
59416;SDS011;45222;52.458;20.914;2022-10-16T14:15:28;12.40;;;9.40;;
59416;SDS011;45222;52.458;20.914;2022-10-16T14:18:32;11.30;;;9.30;;
59416;SDS011;45222;52.458;20.914;2022-10-16T14:21:36;12.60;;;9.70;;
59416;SDS011;45222;52.458;20.914;2022-10-16T14:24:42;12.10;;;9.80;;
59416;SDS011;45222;52.458;20.914;2022-10-16T14:27:44;14.70;;;10.80;;
59416;SDS011;45222;52.458;20.914;2022-10-16T14:30:58;12.90;;;10.30;;
59416;SDS011;45222;52.458;20.914;2022-10-16T14:34:01;14.60;;;10.90;;
59416;SDS011;45222;52.458;20.914;2022-10-16T14:37:08;13.10;;;10.10;;
59416;SDS011;45222;52.458;20.914;2022-10-16T14:40:17;14.80;;;9.00;;
59416;SDS011;45222;52.458;20.914;2022-10-16T14:43:21;12.50;;;9.50;;
59416;SDS011;45222;52.458;20.914;2022-10-16T14:46:32;14.40;;;10.20;;
59416;SDS011;45222;52.458;20.914;2022-10-16T14:49:37;12.80;;;10.80;;
59416;SDS011;45222;52.458;20.914;2022-10-16T14:52:39;14.30;;;10.30;;
59416;SDS011;45222;52.458;20.914;2022-10-16T14:55:42;13.60;;;10.60;;
59416;SDS011;45222;52.458;20.914;2022-10-16T14:58:45;14.00;;;10.90;;
59416;SDS011;45222;52.458;20.914;2022-10-16T15:01:48;12.90;;;9.60;;
59416;SDS011;45222;52.458;20.914;2022-10-16T15:04:50;13.40;;;9.70;;
59416;SDS011;45222;52.458;20.914;2022-10-16T15:07:54;14.00;;;10.30;;
59416;SDS011;45222;52.458;20.914;2022-10-16T15:10:57;13.30;;;10.40;;
59416;SDS011;45222;52.458;20.914;2022-10-16T15:13:59;15.00;;;10.40;;
59416;SDS011;45222;52.458;20.914;2022-10-16T15:17:02;14.10;;;10.70;;
59416;SDS011;45222;52.458;20.914;2022-10-16T15:20:05;14.90;;;10.90;;
59416;SDS011;45222;52.458;20.914;2022-10-16T15:23:13;14.00;;;10.10;;
59416;SDS011;45222;52.458;20.914;2022-10-16T15:26:17;11.40;;;9.20;;
59416;SDS011;45222;52.458;20.914;2022-10-16T15:29:19;13.10;;;9.90;;
59416;SDS011;45222;52.458;20.914;2022-10-16T15:32:22;13.30;;;10.70;;
59416;SDS011;45222;52.458;20.914;2022-10-16T15:35:24;14.00;;;10.30;;
59416;SDS011;45222;52.458;20.914;2022-10-16T15:38:27;14.80;;;11.40;;
59416;SDS011;45222;52.458;20.914;2022-10-16T15:41:31;14.70;;;11.40;;
59416;SDS011;45222;52.458;20.914;2022-10-16T15:44:34;14.10;;;10.60;;
59416;SDS011;45222;52.458;20.914;2022-10-16T15:47:36;13.60;;;10.70;;
59416;SDS011;45222;52.458;20.914;2022-10-16T15:50:39;14.00;;;10.60;;
59416;SDS011;45222;52.458;20.914;2022-10-16T15:53:43;14.50;;;11.60;;
59416;SDS011;45222;52.458;20.914;2022-10-16T15:56:47;13.60;;;11.70;;
59416;SDS011;45222;52.458;20.914;2022-10-16T15:59:50;15.40;;;11.70;;
59416;SDS011;45222;52.458;20.914;2022-10-16T16:02:53;15.80;;;11.30;;
59416;SDS011;45222;52.458;20.914;2022-10-16T16:05:56;15.50;;;11.20;;
59416;SDS011;45222;52.458;20.914;2022-10-16T16:08:59;16.60;;;12.90;;
59416;SDS011;45222;52.458;20.914;2022-10-16T16:12:02;18.70;;;13.10;;
59416;SDS011;45222;52.458;20.914;2022-10-16T16:15:06;19.50;;;14.90;;
59416;SDS011;45222;52.458;20.914;2022-10-16T16:18:10;21.00;;;15.40;;
59416;SDS011;45222;52.458;20.914;2022-10-16T16:21:13;19.90;;;15.30;;
59416;SDS011;45222;52.458;20.914;2022-10-16T16:24:16;22.70;;;15.90;;
59416;SDS011;45222;52.458;20.914;2022-10-16T16:27:19;22.40;;;14.80;;
59416;SDS011;45222;52.458;20.914;2022-10-16T16:30:21;18.40;;;14.30;;
59416;SDS011;45222;52.458;20.914;2022-10-16T16:33:24;17.40;;;12.70;;
59416;SDS011;45222;52.458;20.914;2022-10-16T16:36:26;18.50;;;13.80;;
59416;SDS011;45222;52.458;20.914;2022-10-16T16:39:29;17.20;;;13.90;;
59416;SDS011;45222;52.458;20.914;2022-10-16T16:42:32;18.40;;;13.90;;
59416;SDS011;45222;52.458;20.914;2022-10-16T16:45:35;16.40;;;13.40;;
59416;SDS011;45222;52.458;20.914;2022-10-16T16:48:38;16.20;;;11.90;;
59416;SDS011;45222;52.458;20.914;2022-10-16T16:51:41;14.90;;;11.90;;
59416;SDS011;45222;52.458;20.914;2022-10-16T16:54:44;16.50;;;12.40;;
59416;SDS011;45222;52.458;20.914;2022-10-16T17:00:54;18.70;;;12.30;;
59416;SDS011;45222;52.458;20.914;2022-10-16T17:03:57;16.90;;;11.90;;
59416;SDS011;45222;52.458;20.914;2022-10-16T17:07:00;16.30;;;11.90;;
59416;SDS011;45222;52.458;20.914;2022-10-16T17:10:03;16.00;;;12.50;;
59416;SDS011;45222;52.458;20.914;2022-10-16T17:13:06;18.30;;;13.60;;
59416;SDS011;45222;52.458;20.914;2022-10-16T17:16:09;19.10;;;13.90;;
59416;SDS011;45222;52.458;20.914;2022-10-16T17:19:12;21.00;;;16.60;;
59416;SDS011;45222;52.458;20.914;2022-10-16T17:22:16;19.00;;;15.90;;
59416;SDS011;45222;52.458;20.914;2022-10-16T17:25:19;19.50;;;15.20;;
59416;SDS011;45222;52.458;20.914;2022-10-16T17:28:22;20.70;;;15.30;;
59416;SDS011;45222;52.458;20.914;2022-10-16T17:31:25;23.40;;;15.70;;
59416;SDS011;45222;52.458;20.914;2022-10-16T17:34:29;17.50;;;14.70;;
59416;SDS011;45222;52.458;20.914;2022-10-16T17:37:31;22.10;;;15.80;;
59416;SDS011;45222;52.458;20.914;2022-10-16T17:40:34;22.00;;;16.30;;
59416;SDS011;45222;52.458;20.914;2022-10-16T17:43:37;18.20;;;15.40;;
59416;SDS011;45222;52.458;20.914;2022-10-16T17:46:40;17.90;;;14.10;;
59416;SDS011;45222;52.458;20.914;2022-10-16T17:49:42;20.30;;;13.30;;
59416;SDS011;45222;52.458;20.914;2022-10-16T17:52:45;17.60;;;14.00;;
59416;SDS011;45222;52.458;20.914;2022-10-16T17:55:48;18.00;;;14.20;;
59416;SDS011;45222;52.458;20.914;2022-10-16T17:58:58;16.50;;;14.20;;
59416;SDS011;45222;52.458;20.914;2022-10-16T18:02:02;18.50;;;14.00;;
59416;SDS011;45222;52.458;20.914;2022-10-16T18:05:04;15.50;;;13.70;;
59416;SDS011;45222;52.458;20.914;2022-10-16T18:08:07;18.10;;;14.10;;
59416;SDS011;45222;52.458;20.914;2022-10-16T18:11:10;17.70;;;14.30;;
59416;SDS011;45222;52.458;20.914;2022-10-16T18:14:14;18.30;;;15.30;;
59416;SDS011;45222;52.458;20.914;2022-10-16T18:17:18;17.60;;;15.00;;